createdAt,value
2016-09-15T00:00:24.939Z,23.39
2016-09-15T00:01:05.479Z,23.25
2016-09-15T00:01:46.024Z,23.33
2016-09-15T00:02:26.569Z,23.2
2016-09-15T00:03:07.118Z,23.28
2016-09-15T00:03:47.663Z,23.25
2016-09-15T00:04:28.207Z,23.17
2016-09-15T00:05:08.756Z,23.15
2016-09-15T00:05:49.308Z,23.15
2016-09-15T00:06:29.854Z,23.17
2016-09-15T00:07:10.402Z,23.05
2016-09-15T00:07:50.952Z,23.09
2016-09-15T00:08:31.498Z,23.09
2016-09-15T00:09:12.046Z,23.09
2016-09-15T00:09:52.594Z,23.02
2016-09-15T00:10:33.138Z,23
2016-09-15T00:11:13.686Z,23.01
2016-09-15T00:11:54.234Z,23.01
2016-09-15T00:12:34.781Z,22.98
2016-09-15T00:13:15.328Z,22.95
2016-09-15T00:13:55.873Z,23.07
2016-09-15T00:14:36.415Z,22.97
2016-09-15T00:15:16.957Z,23.04
2016-09-15T00:15:57.507Z,23.04
2016-09-15T00:16:38.052Z,23.05
2016-09-15T00:17:18.598Z,23.07
2016-09-15T00:17:59.145Z,23.05
2016-09-15T00:18:39.687Z,23.09
2016-09-15T00:19:20.237Z,23.1
2016-09-15T00:20:00.788Z,23.09
2016-09-15T00:20:41.341Z,23.05
2016-09-15T00:21:21.878Z,23.07
2016-09-15T00:22:02.428Z,23.05
2016-09-15T00:22:42.978Z,23.07
2016-09-15T00:23:23.531Z,23.09
2016-09-15T00:24:04.084Z,23.1
2016-09-15T00:24:44.643Z,23.02
2016-09-15T00:25:25.183Z,23.04
2016-09-15T00:26:05.746Z,23.05
2016-09-15T00:26:46.285Z,23.12
2016-09-15T00:27:26.833Z,23.12
2016-09-15T00:28:07.386Z,23.1
2016-09-15T00:28:47.936Z,23.15
2016-09-15T00:29:28.491Z,23.1
2016-09-15T00:30:09.032Z,23.15
2016-09-15T00:30:49.585Z,23.12
2016-09-15T00:31:30.131Z,23.09
2016-09-15T00:32:10.675Z,23.16
2016-09-15T00:32:51.211Z,23.05
2016-09-15T00:33:31.765Z,23.1
2016-09-15T00:34:12.302Z,23.02
2016-09-15T00:34:52.833Z,23.07
2016-09-15T00:35:33.375Z,23.07
2016-09-15T00:36:13.906Z,23
2016-09-15T00:36:54.458Z,23.05
2016-09-15T00:37:35.011Z,23.02
2016-09-15T00:38:15.560Z,23.05
2016-09-15T00:38:56.102Z,23.02
2016-09-15T00:39:36.638Z,23
2016-09-15T00:40:17.189Z,23.02
2016-09-15T00:40:57.739Z,22.98
2016-09-15T00:41:38.280Z,22.97
2016-09-15T00:42:18.826Z,22.95
2016-09-15T00:42:59.368Z,22.98
2016-09-15T00:43:39.908Z,23
2016-09-15T00:44:20.442Z,22.98
2016-09-15T00:45:01.019Z,22.88
2016-09-15T00:45:41.562Z,23
2016-09-15T00:46:22.096Z,22.92
2016-09-15T00:47:02.637Z,22.98
2016-09-15T00:47:43.184Z,22.88
2016-09-15T00:48:23.736Z,22.88
2016-09-15T00:49:04.283Z,22.88
2016-09-15T00:49:44.826Z,22.88
2016-09-15T00:50:25.388Z,22.83
2016-09-15T00:51:05.933Z,22.88
2016-09-15T00:51:46.480Z,22.86
2016-09-15T00:52:27.027Z,22.9
2016-09-15T00:53:07.577Z,22.91
2016-09-15T00:53:48.135Z,23
2016-09-15T00:54:28.677Z,22.88
2016-09-15T00:55:09.227Z,22.83
2016-09-15T00:55:49.771Z,22.91
2016-09-15T00:56:30.312Z,22.82
2016-09-15T00:57:10.865Z,22.92
2016-09-15T00:57:51.408Z,22.88
2016-09-15T00:58:31.954Z,22.94
2016-09-15T00:59:12.499Z,22.9
2016-09-15T00:59:53.046Z,22.9
2016-09-15T01:00:33.597Z,22.98
2016-09-15T01:01:14.145Z,22.97
2016-09-15T01:01:54.685Z,23.01
2016-09-15T01:02:35.229Z,23
2016-09-15T01:03:15.760Z,23
2016-09-15T01:03:56.308Z,23.02
2016-09-15T01:04:36.857Z,23.02
2016-09-15T01:05:17.403Z,23.04
2016-09-15T01:05:57.941Z,23
2016-09-15T01:06:38.489Z,22.97
2016-09-15T01:07:19.035Z,23.02
2016-09-15T01:07:59.563Z,23
2016-09-15T01:08:40.097Z,23
2016-09-15T01:09:20.641Z,23
2016-09-15T01:10:01.173Z,22.98
2016-09-15T01:10:41.716Z,23.01
2016-09-15T01:11:22.262Z,22.98
2016-09-15T01:12:02.805Z,22.97
2016-09-15T01:12:43.361Z,22.92
2016-09-15T01:13:23.909Z,22.91
2016-09-15T01:14:04.460Z,22.94
2016-09-15T01:14:45.008Z,22.97
2016-09-15T01:15:25.558Z,22.95
2016-09-15T01:16:06.103Z,22.9
2016-09-15T01:16:46.654Z,22.88
2016-09-15T01:17:27.202Z,22.9
2016-09-15T01:18:07.751Z,22.83
2016-09-15T01:18:48.304Z,22.88
2016-09-15T01:19:28.855Z,22.88
2016-09-15T01:20:09.410Z,22.82
2016-09-15T01:20:49.963Z,22.73
2016-09-15T01:21:30.501Z,22.77
2016-09-15T01:22:11.044Z,22.68
2016-09-15T01:22:51.597Z,22.68
2016-09-15T01:23:32.140Z,22.6
2016-09-15T01:24:12.689Z,22.65
2016-09-15T01:24:53.239Z,22.55
2016-09-15T01:25:33.791Z,22.57
2016-09-15T01:26:14.333Z,22.6
2016-09-15T01:26:54.880Z,22.46
2016-09-15T01:27:35.429Z,22.47
2016-09-15T01:28:15.978Z,22.49
2016-09-15T01:28:56.529Z,22.47
2016-09-15T01:29:37.083Z,22.43
2016-09-15T01:30:17.633Z,22.46
2016-09-15T01:30:58.188Z,22.46
2016-09-15T01:31:38.733Z,22.45
2016-09-15T01:32:19.280Z,22.36
2016-09-15T01:32:59.823Z,22.43
2016-09-15T01:33:40.370Z,22.54
2016-09-15T01:34:20.900Z,22.51
2016-09-15T01:35:01.459Z,22.47
2016-09-15T01:35:41.997Z,22.36
2016-09-15T01:36:22.535Z,22.45
2016-09-15T01:37:03.091Z,22.43
2016-09-15T01:37:43.632Z,22.35
2016-09-15T01:38:24.182Z,22.27
2016-09-15T01:39:04.727Z,22.33
2016-09-15T01:39:45.269Z,22.25
2016-09-15T01:40:25.812Z,22.31
2016-09-15T01:41:06.353Z,22.14
2016-09-15T01:41:46.899Z,22.2
2016-09-15T01:42:27.446Z,22.21
2016-09-15T01:43:07.997Z,22.18
2016-09-15T01:43:48.541Z,22.12
2016-09-15T01:44:29.086Z,22.18
2016-09-15T01:45:09.630Z,22.21
2016-09-15T01:45:50.172Z,22.22
2016-09-15T01:46:30.710Z,22.15
2016-09-15T01:47:11.258Z,22.14
2016-09-15T01:47:51.804Z,22.07
2016-09-15T01:48:32.351Z,22
2016-09-15T01:49:12.898Z,21.88
2016-09-15T01:49:53.452Z,21.9
2016-09-15T01:50:34.006Z,21.9
2016-09-15T01:51:14.545Z,21.86
2016-09-15T01:51:55.094Z,21.79
2016-09-15T01:52:35.634Z,21.77
2016-09-15T01:53:16.184Z,21.71
2016-09-15T01:53:56.739Z,21.75
2016-09-15T01:54:37.283Z,21.71
2016-09-15T01:55:17.827Z,21.59
2016-09-15T01:55:58.376Z,21.69
2016-09-15T01:56:38.911Z,21.58
2016-09-15T01:57:19.458Z,21.58
2016-09-15T01:57:59.988Z,21.54
2016-09-15T01:58:40.539Z,21.54
2016-09-15T01:59:21.071Z,21.46
2016-09-15T02:00:01.618Z,21.46
2016-09-15T02:00:42.156Z,21.44
2016-09-15T02:01:22.712Z,21.35
2016-09-15T02:02:03.266Z,21.43
2016-09-15T02:02:43.804Z,21.35
2016-09-15T02:03:24.354Z,21.34
2016-09-15T02:04:04.912Z,21.38
2016-09-15T02:04:45.463Z,21.34
2016-09-15T02:05:26.011Z,21.35
2016-09-15T02:06:06.559Z,21.31
2016-09-15T02:06:47.108Z,21.19
2016-09-15T02:07:27.662Z,21.22
2016-09-15T02:08:08.210Z,21.14
2016-09-15T02:08:48.755Z,21.14
2016-09-15T02:09:29.291Z,21.12
2016-09-15T02:10:09.831Z,20.92
2016-09-15T02:10:50.372Z,20.99
2016-09-15T02:11:30.934Z,20.95
2016-09-15T02:12:11.472Z,20.99
2016-09-15T02:12:52.015Z,20.92
2016-09-15T02:13:32.551Z,20.87
2016-09-15T02:14:13.089Z,20.91
2016-09-15T02:14:53.637Z,20.73
2016-09-15T02:15:34.182Z,20.79
2016-09-15T02:16:14.736Z,20.74
2016-09-15T02:16:55.269Z,20.79
2016-09-15T02:17:35.810Z,20.59
2016-09-15T02:18:16.359Z,20.67
2016-09-15T02:18:56.914Z,20.52
2016-09-15T02:19:37.463Z,20.55
2016-09-15T02:20:18.013Z,20.5
2016-09-15T02:20:58.558Z,20.5
2016-09-15T02:21:39.112Z,20.52
2016-09-15T02:22:19.660Z,20.43
2016-09-15T02:23:00.210Z,20.47
2016-09-15T02:23:40.758Z,20.41
2016-09-15T02:24:21.307Z,20.41
2016-09-15T02:25:01.841Z,20.39
2016-09-15T02:25:42.395Z,20.36
2016-09-15T02:26:22.945Z,20.35
2016-09-15T02:27:03.493Z,20.24
2016-09-15T02:27:44.041Z,20.2
2016-09-15T02:28:24.588Z,20.18
2016-09-15T02:29:05.138Z,20.2
2016-09-15T02:29:45.680Z,20.13
2016-09-15T02:30:26.217Z,20.18
2016-09-15T02:31:06.778Z,20.16
2016-09-15T02:31:47.312Z,20.06
2016-09-15T02:32:27.858Z,20.03
2016-09-15T02:33:08.401Z,20.03
2016-09-15T02:33:48.942Z,19.99
2016-09-15T02:34:29.500Z,19.99
2016-09-15T02:35:10.043Z,19.96
2016-09-15T02:35:50.593Z,19.98
2016-09-15T02:36:31.144Z,19.88
2016-09-15T02:37:11.683Z,19.95
2016-09-15T02:37:52.234Z,19.84
2016-09-15T02:38:32.780Z,19.88
2016-09-15T02:39:13.329Z,19.88
2016-09-15T02:39:53.867Z,19.84
2016-09-15T02:40:34.417Z,19.95
2016-09-15T02:41:14.961Z,19.78
2016-09-15T02:41:55.512Z,19.77
2016-09-15T02:42:36.055Z,19.76
2016-09-15T02:43:16.606Z,19.83
2016-09-15T02:43:57.150Z,19.76
2016-09-15T02:44:37.681Z,19.78
2016-09-15T02:45:18.225Z,19.74
2016-09-15T02:45:58.773Z,19.8
2016-09-15T02:46:39.317Z,19.76
2016-09-15T02:47:19.866Z,19.78
2016-09-15T02:48:00.410Z,19.78
2016-09-15T02:48:40.969Z,19.76
2016-09-15T02:49:21.508Z,19.76
2016-09-15T02:50:02.065Z,19.74
2016-09-15T02:50:42.614Z,19.68
2016-09-15T02:51:23.160Z,19.76
2016-09-15T02:52:03.708Z,19.71
2016-09-15T02:52:44.253Z,19.71
2016-09-15T02:53:24.802Z,19.65
2016-09-15T02:54:05.348Z,19.74
2016-09-15T02:54:45.903Z,19.63
2016-09-15T02:55:26.455Z,19.66
2016-09-15T02:56:07.003Z,19.56
2016-09-15T02:56:47.556Z,19.61
2016-09-15T02:57:28.103Z,19.58
2016-09-15T02:58:08.657Z,19.58
2016-09-15T02:58:49.190Z,19.61
2016-09-15T02:59:29.738Z,19.65
2016-09-15T03:00:10.288Z,19.56
2016-09-15T03:00:50.831Z,19.58
2016-09-15T03:01:31.382Z,19.51
2016-09-15T03:02:11.932Z,19.59
2016-09-15T03:02:52.471Z,19.63
2016-09-15T03:03:33.008Z,19.58
2016-09-15T03:04:13.548Z,19.61
2016-09-15T03:04:54.095Z,19.54
2016-09-15T03:05:34.643Z,19.55
2016-09-15T03:06:15.189Z,19.51
2016-09-15T03:06:55.737Z,19.48
2016-09-15T03:07:36.283Z,19.47
2016-09-15T03:08:16.830Z,19.47
2016-09-15T03:08:57.377Z,19.44
2016-09-15T03:09:37.934Z,19.56
2016-09-15T03:10:18.482Z,19.55
2016-09-15T03:10:59.010Z,19.44
2016-09-15T03:11:39.550Z,19.51
2016-09-15T03:12:20.095Z,19.54
2016-09-15T03:13:00.645Z,19.4
2016-09-15T03:13:41.193Z,19.46
2016-09-15T03:14:21.739Z,19.43
2016-09-15T03:15:02.291Z,19.43
2016-09-15T03:15:42.835Z,19.5
2016-09-15T03:16:23.372Z,19.46
2016-09-15T03:17:03.912Z,19.4
2016-09-15T03:17:44.460Z,19.37
2016-09-15T03:18:25.009Z,19.4
2016-09-15T03:19:05.552Z,19.37
2016-09-15T03:19:46.098Z,19.39
2016-09-15T03:20:26.643Z,19.39
2016-09-15T03:21:07.195Z,19.4
2016-09-15T03:21:47.737Z,19.4
2016-09-15T03:22:28.280Z,19.39
2016-09-15T03:23:08.826Z,19.41
2016-09-15T03:23:49.374Z,19.36
2016-09-15T03:24:29.917Z,19.33
2016-09-15T03:25:10.462Z,19.39
2016-09-15T03:25:51.014Z,19.36
2016-09-15T03:26:31.562Z,19.36
2016-09-15T03:27:12.110Z,19.33
2016-09-15T03:27:52.656Z,19.31
2016-09-15T03:28:33.199Z,19.4
2016-09-15T03:29:13.735Z,19.36
2016-09-15T03:29:54.277Z,19.22
2016-09-15T03:30:34.836Z,19.22
2016-09-15T03:31:15.376Z,19.26
2016-09-15T03:31:55.924Z,19.23
2016-09-15T03:32:36.467Z,19.36
2016-09-15T03:33:17.021Z,19.32
2016-09-15T03:33:57.572Z,19.22
2016-09-15T03:34:38.108Z,19.29
2016-09-15T03:35:18.660Z,19.22
2016-09-15T03:35:59.208Z,19.31
2016-09-15T03:36:39.758Z,19.25
2016-09-15T03:37:20.302Z,19.23
2016-09-15T03:38:00.851Z,19.31
2016-09-15T03:38:41.402Z,19.4
2016-09-15T03:39:21.952Z,19.26
2016-09-15T03:40:02.499Z,19.28
2016-09-15T03:40:43.051Z,19.25
2016-09-15T03:41:23.587Z,19.36
2016-09-15T03:42:04.130Z,19.39
2016-09-15T03:42:44.683Z,19.25
2016-09-15T03:43:25.232Z,19.21
2016-09-15T03:44:05.779Z,19.36
2016-09-15T03:44:46.356Z,19.41
2016-09-15T03:45:26.862Z,19.32
2016-09-15T03:46:07.393Z,19.29
2016-09-15T03:46:47.933Z,19.22
2016-09-15T03:47:28.480Z,19.37
2016-09-15T03:48:09.020Z,19.36
2016-09-15T03:48:49.571Z,19.31
2016-09-15T03:49:30.115Z,19.32
2016-09-15T03:50:10.660Z,19.25
2016-09-15T03:50:51.211Z,19.31
2016-09-15T03:51:31.785Z,19.31
2016-09-15T03:52:12.327Z,19.26
2016-09-15T03:52:52.878Z,19.28
2016-09-15T03:53:33.428Z,19.25
2016-09-15T03:54:13.978Z,19.29
2016-09-15T03:54:54.573Z,19.28
2016-09-15T03:55:35.124Z,19.26
2016-09-15T03:56:15.687Z,19.13
2016-09-15T03:56:56.239Z,19.18
2016-09-15T03:57:36.784Z,19.1
2016-09-15T03:58:17.326Z,19.19
2016-09-15T03:58:57.871Z,19.16
2016-09-15T03:59:38.410Z,19.26
2016-09-15T04:00:18.960Z,19.18
2016-09-15T04:00:59.509Z,19.22
2016-09-15T04:01:40.058Z,19.23
2016-09-15T04:02:20.606Z,19.16
2016-09-15T04:03:01.166Z,19.11
2016-09-15T04:03:41.694Z,19.13
2016-09-15T04:04:22.244Z,19.16
2016-09-15T04:05:02.790Z,19.21
2016-09-15T04:05:43.356Z,19.18
2016-09-15T04:06:23.988Z,19.1
2016-09-15T04:07:04.535Z,19.14
2016-09-15T04:07:45.110Z,19.08
2016-09-15T04:08:25.653Z,19.07
2016-09-15T04:09:06.207Z,19.11
2016-09-15T04:09:46.762Z,19.1
2016-09-15T04:10:27.309Z,19.04
2016-09-15T04:11:07.888Z,18.98
2016-09-15T04:11:48.493Z,18.95
2016-09-15T04:12:29.022Z,18.98
2016-09-15T04:13:09.563Z,18.94
2016-09-15T04:13:50.104Z,18.92
2016-09-15T04:14:30.647Z,18.9
2016-09-15T04:15:11.192Z,18.81
2016-09-15T04:15:51.729Z,18.8
2016-09-15T04:16:32.275Z,18.82
2016-09-15T04:17:12.811Z,18.82
2016-09-15T04:17:53.365Z,18.78
2016-09-15T04:18:33.898Z,18.78
2016-09-15T04:19:14.447Z,18.84
2016-09-15T04:19:54.997Z,18.82
2016-09-15T04:20:35.548Z,18.78
2016-09-15T04:21:16.101Z,18.78
2016-09-15T04:21:56.647Z,18.75
2016-09-15T04:22:37.193Z,18.72
2016-09-15T04:23:17.744Z,18.72
2016-09-15T04:23:58.297Z,18.67
2016-09-15T04:24:38.846Z,18.7
2016-09-15T04:25:19.398Z,18.75
2016-09-15T04:25:59.949Z,18.66
2016-09-15T04:26:40.490Z,18.67
2016-09-15T04:27:21.035Z,18.72
2016-09-15T04:28:01.586Z,18.66
2016-09-15T04:28:42.136Z,18.67
2016-09-15T04:29:22.687Z,18.66
2016-09-15T04:30:03.233Z,18.55
2016-09-15T04:30:43.782Z,18.69
2016-09-15T04:31:24.333Z,18.66
2016-09-15T04:32:04.914Z,18.67
2016-09-15T04:32:45.458Z,18.66
2016-09-15T04:33:26.940Z,18.67
2016-09-15T04:34:07.491Z,18.67
2016-09-15T04:34:48.040Z,18.62
2016-09-15T04:35:28.594Z,18.65
2016-09-15T04:36:09.148Z,18.65
2016-09-15T04:36:49.691Z,18.67
2016-09-15T04:37:30.228Z,18.67
2016-09-15T04:38:10.786Z,18.65
2016-09-15T04:38:51.327Z,18.58
2016-09-15T04:39:31.869Z,18.62
2016-09-15T04:40:12.420Z,18.6
2016-09-15T04:40:52.971Z,18.62
2016-09-15T04:41:33.516Z,18.54
2016-09-15T04:42:14.054Z,18.48
2016-09-15T04:42:54.586Z,18.52
2016-09-15T04:43:35.125Z,18.54
2016-09-15T04:44:15.670Z,18.47
2016-09-15T04:44:56.285Z,18.54
2016-09-15T04:45:36.830Z,18.51
2016-09-15T04:46:17.372Z,18.55
2016-09-15T04:46:57.913Z,18.47
2016-09-15T04:47:38.448Z,18.5
2016-09-15T04:48:18.974Z,18.5
2016-09-15T04:48:59.519Z,18.45
2016-09-15T04:49:40.087Z,18.47
2016-09-15T04:50:20.619Z,18.45
2016-09-15T04:51:01.188Z,18.41
2016-09-15T04:51:41.689Z,18.44
2016-09-15T04:52:22.231Z,18.45
2016-09-15T04:53:02.783Z,18.45
2016-09-15T04:53:43.334Z,18.44
2016-09-15T04:54:23.881Z,18.45
2016-09-15T04:55:04.431Z,18.41
2016-09-15T04:55:44.980Z,18.48
2016-09-15T04:56:25.524Z,18.47
2016-09-15T04:57:06.060Z,18.39
2016-09-15T04:57:46.598Z,18.44
2016-09-15T04:58:27.213Z,18.44
2016-09-15T04:59:07.765Z,18.37
2016-09-15T04:59:48.318Z,18.32
2016-09-15T05:00:28.870Z,18.35
2016-09-15T05:01:09.419Z,18.39
2016-09-15T05:01:49.972Z,18.37
2016-09-15T05:02:30.526Z,18.29
2016-09-15T05:03:11.078Z,18.3
2016-09-15T05:03:51.621Z,18.36
2016-09-15T05:04:32.173Z,18.33
2016-09-15T05:05:12.723Z,18.39
2016-09-15T05:05:53.273Z,18.32
2016-09-15T05:06:33.827Z,18.42
2016-09-15T05:07:14.379Z,18.32
2016-09-15T05:07:54.931Z,18.32
2016-09-15T05:08:35.482Z,18.25
2016-09-15T05:09:16.046Z,18.2
2016-09-15T05:09:56.593Z,18.32
2016-09-15T05:10:37.125Z,18.3
2016-09-15T05:11:17.665Z,18.32
2016-09-15T05:11:58.208Z,18.23
2016-09-15T05:12:38.760Z,18.23
2016-09-15T05:13:19.309Z,18.25
2016-09-15T05:13:59.860Z,18.17
2016-09-15T05:14:40.410Z,18.18
2016-09-15T05:15:20.961Z,18.17
2016-09-15T05:16:01.507Z,18.18
2016-09-15T05:16:42.054Z,18.18
2016-09-15T05:17:22.578Z,18.15
2016-09-15T05:18:03.142Z,18.12
2016-09-15T05:18:43.665Z,18.18
2016-09-15T05:19:24.208Z,18.2
2016-09-15T05:20:04.744Z,18.11
2016-09-15T05:20:45.284Z,18.15
2016-09-15T05:21:25.835Z,18.11
2016-09-15T05:22:06.389Z,18.1
2016-09-15T05:22:46.930Z,18.1
2016-09-15T05:23:27.472Z,18.1
2016-09-15T05:24:08.013Z,18.12
2016-09-15T05:24:48.559Z,18.05
2016-09-15T05:25:29.107Z,18.05
2016-09-15T05:26:09.636Z,18.03
2016-09-15T05:26:50.187Z,18.05
2016-09-15T05:27:30.738Z,18.08
2016-09-15T05:28:11.283Z,18.05
2016-09-15T05:28:51.828Z,18.08
2016-09-15T05:29:32.384Z,18.08
2016-09-15T05:30:12.927Z,18.1
2016-09-15T05:30:53.488Z,18.11
2016-09-15T05:31:34.024Z,18.05
2016-09-15T05:32:14.571Z,18.12
2016-09-15T05:32:55.112Z,18.08
2016-09-15T05:33:35.663Z,18.05
2016-09-15T05:34:16.209Z,18
2016-09-15T05:34:56.761Z,18.03
2016-09-15T05:35:37.306Z,17.99
2016-09-15T05:36:17.851Z,18.08
2016-09-15T05:36:58.390Z,17.96
2016-09-15T05:37:38.922Z,17.99
2016-09-15T05:38:19.471Z,17.99
2016-09-15T05:39:00.013Z,17.93
2016-09-15T05:39:40.549Z,17.9
2016-09-15T05:40:21.103Z,18
2016-09-15T05:41:01.650Z,17.99
2016-09-15T05:41:42.197Z,17.97
2016-09-15T05:42:22.733Z,18.03
2016-09-15T05:43:03.278Z,17.99
2016-09-15T05:43:43.824Z,17.99
2016-09-15T05:44:24.377Z,18.05
2016-09-15T05:45:04.920Z,17.93
2016-09-15T05:45:45.471Z,17.95
2016-09-15T05:46:26.017Z,17.93
2016-09-15T05:47:06.563Z,18
2016-09-15T05:47:47.112Z,17.96
2016-09-15T05:48:27.656Z,17.96
2016-09-15T05:49:08.201Z,17.93
2016-09-15T05:49:48.747Z,17.92
2016-09-15T05:50:29.304Z,17.96
2016-09-15T05:51:09.853Z,17.96
2016-09-15T05:51:50.396Z,17.92
2016-09-15T05:52:30.944Z,17.82
2016-09-15T05:53:11.487Z,17.9
2016-09-15T05:53:52.039Z,17.99
2016-09-15T05:54:32.569Z,17.9
2016-09-15T05:55:13.109Z,17.97
2016-09-15T05:55:53.648Z,18.05
2016-09-15T05:56:34.198Z,17.97
2016-09-15T05:57:14.765Z,17.96
2016-09-15T05:57:55.297Z,17.96
2016-09-15T05:58:35.849Z,17.99
2016-09-15T05:59:16.396Z,17.96
2016-09-15T05:59:56.941Z,17.96
2016-09-15T06:00:37.471Z,17.96
2016-09-15T06:01:18.015Z,17.99
2016-09-15T06:01:58.564Z,17.95
2016-09-15T06:02:39.122Z,17.97
2016-09-15T06:03:19.667Z,17.97
2016-09-15T06:04:00.213Z,17.97
2016-09-15T06:04:40.762Z,17.92
2016-09-15T06:05:21.313Z,17.97
2016-09-15T06:06:01.855Z,18.02
2016-09-15T06:06:42.397Z,18.02
2016-09-15T06:07:22.930Z,17.99
2016-09-15T06:08:03.477Z,18.03
2016-09-15T06:08:44.019Z,18.07
2016-09-15T06:09:24.565Z,18.05
2016-09-15T06:10:05.120Z,18.07
2016-09-15T06:10:45.661Z,18.08
2016-09-15T06:11:26.211Z,18.07
2016-09-15T06:12:06.753Z,18.18
2016-09-15T06:12:47.298Z,18.17
2016-09-15T06:13:27.846Z,18.15
2016-09-15T06:14:08.396Z,18.18
2016-09-15T06:14:48.937Z,18.15
2016-09-15T06:15:29.476Z,18.11
2016-09-15T06:16:10.030Z,18.1
2016-09-15T06:16:50.574Z,18.15
2016-09-15T06:17:31.124Z,18.15
2016-09-15T06:18:11.673Z,18.18
2016-09-15T06:18:52.216Z,18.25
2016-09-15T06:19:32.761Z,18.26
2016-09-15T06:20:13.300Z,18.23
2016-09-15T06:20:53.844Z,18.23
2016-09-15T06:21:34.407Z,18.25
2016-09-15T06:22:14.927Z,18.27
2016-09-15T06:22:55.473Z,18.26
2016-09-15T06:23:36.024Z,18.39
2016-09-15T06:24:16.567Z,18.29
2016-09-15T06:24:57.115Z,18.3
2016-09-15T06:25:37.663Z,18.39
2016-09-15T06:26:18.216Z,18.35
2016-09-15T06:26:58.759Z,18.33
2016-09-15T06:27:39.298Z,18.42
2016-09-15T06:28:19.840Z,18.33
2016-09-15T06:29:00.387Z,18.36
2016-09-15T06:29:40.944Z,18.33
2016-09-15T06:30:21.499Z,18.44
2016-09-15T06:31:02.038Z,18.41
2016-09-15T06:31:42.589Z,18.52
2016-09-15T06:32:23.130Z,18.45
2016-09-15T06:33:03.673Z,18.48
2016-09-15T06:33:44.209Z,18.44
2016-09-15T06:34:24.752Z,18.51
2016-09-15T06:35:05.299Z,18.52
2016-09-15T06:35:45.859Z,18.54
2016-09-15T06:36:26.386Z,18.52
2016-09-15T06:37:06.926Z,18.58
2016-09-15T06:37:47.476Z,18.52
2016-09-15T06:38:28.025Z,18.6
2016-09-15T06:39:08.575Z,18.62
2016-09-15T06:39:49.124Z,18.58
2016-09-15T06:40:29.682Z,18.69
2016-09-15T06:41:10.229Z,18.69
2016-09-15T06:41:50.785Z,18.55
2016-09-15T06:42:31.333Z,18.65
2016-09-15T06:43:11.883Z,18.67
2016-09-15T06:43:52.434Z,18.7
2016-09-15T06:44:32.987Z,18.78
2016-09-15T06:45:13.531Z,18.8
2016-09-15T06:45:54.077Z,18.8
2016-09-15T06:46:34.628Z,18.75
2016-09-15T06:47:15.173Z,18.76
2016-09-15T06:47:55.732Z,18.76
2016-09-15T06:48:36.285Z,18.81
2016-09-15T06:49:16.838Z,18.88
2016-09-15T06:49:57.382Z,18.94
2016-09-15T06:50:37.924Z,18.88
2016-09-15T06:51:18.462Z,18.92
2016-09-15T06:51:59.005Z,18.99
2016-09-15T06:52:39.549Z,18.95
2016-09-15T06:53:20.101Z,18.91
2016-09-15T06:54:00.631Z,18.95
2016-09-15T06:54:41.205Z,19.02
2016-09-15T06:55:21.733Z,19.04
2016-09-15T06:56:02.282Z,19.08
2016-09-15T06:56:42.831Z,19.06
2016-09-15T06:57:23.375Z,19.14
2016-09-15T06:58:03.919Z,19.19
2016-09-15T06:58:44.481Z,19.19
2016-09-15T06:59:25.011Z,19.16
2016-09-15T07:00:05.563Z,19.18
2016-09-15T07:00:46.110Z,19.18
2016-09-15T07:01:26.653Z,19.25
2016-09-15T07:02:07.202Z,19.31
2016-09-15T07:02:47.750Z,19.25
2016-09-15T07:03:28.295Z,19.32
2016-09-15T07:04:08.838Z,19.22
2016-09-15T07:04:49.398Z,19.28
2016-09-15T07:05:29.947Z,19.25
2016-09-15T07:06:10.490Z,19.32
2016-09-15T07:06:51.027Z,19.41
2016-09-15T07:07:31.576Z,19.43
2016-09-15T07:08:12.126Z,19.48
2016-09-15T07:08:52.672Z,19.51
2016-09-15T07:09:33.214Z,19.54
2016-09-15T07:10:13.763Z,19.59
2016-09-15T07:10:54.298Z,19.58
2016-09-15T07:11:34.847Z,19.66
2016-09-15T07:12:15.395Z,19.69
2016-09-15T07:12:55.944Z,19.69
2016-09-15T07:13:36.490Z,19.8
2016-09-15T07:14:17.038Z,19.73
2016-09-15T07:14:57.589Z,19.71
2016-09-15T07:15:38.134Z,19.8
2016-09-15T07:16:18.681Z,19.81
2016-09-15T07:16:59.231Z,19.78
2016-09-15T07:17:39.781Z,19.87
2016-09-15T07:18:20.324Z,19.96
2016-09-15T07:19:00.869Z,19.99
2016-09-15T07:19:41.420Z,20.03
2016-09-15T07:20:21.987Z,20.08
2016-09-15T07:21:02.525Z,20.17
2016-09-15T07:21:43.074Z,20.23
2016-09-15T07:22:23.623Z,20.28
2016-09-15T07:23:04.171Z,20.31
2016-09-15T07:23:44.717Z,20.39
2016-09-15T07:24:25.267Z,20.5
2016-09-15T07:25:05.812Z,20.57
2016-09-15T07:25:46.360Z,20.61
2016-09-15T07:26:26.908Z,20.67
2016-09-15T07:27:07.460Z,20.61
2016-09-15T07:27:48.008Z,20.74
2016-09-15T07:28:28.559Z,20.73
2016-09-15T07:29:09.113Z,20.8
2016-09-15T07:29:49.660Z,20.72
2016-09-15T07:30:30.208Z,20.77
2016-09-15T07:31:10.759Z,20.84
2016-09-15T07:31:51.299Z,20.89
2016-09-15T07:32:31.844Z,20.87
2016-09-15T07:33:12.381Z,20.94
2016-09-15T07:33:52.924Z,20.98
2016-09-15T07:34:33.478Z,20.94
2016-09-15T07:35:14.025Z,20.98
2016-09-15T07:35:54.572Z,20.99
2016-09-15T07:36:35.124Z,20.98
2016-09-15T07:37:15.672Z,21.13
2016-09-15T07:37:56.227Z,21.07
2016-09-15T07:38:36.761Z,21.14
2016-09-15T07:39:17.314Z,21.13
2016-09-15T07:39:57.863Z,21.22
2016-09-15T07:40:38.417Z,21.34
2016-09-15T07:41:18.969Z,21.27
2016-09-15T07:41:59.515Z,21.34
2016-09-15T07:42:40.064Z,21.35
2016-09-15T07:43:20.610Z,21.43
2016-09-15T07:44:01.161Z,21.5
2016-09-15T07:44:41.705Z,21.61
2016-09-15T07:45:22.248Z,21.59
2016-09-15T07:46:02.800Z,21.58
2016-09-15T07:46:43.339Z,21.65
2016-09-15T07:47:23.885Z,21.71
2016-09-15T07:48:04.432Z,21.69
2016-09-15T07:48:44.986Z,21.67
2016-09-15T07:49:25.527Z,21.8
2016-09-15T07:50:06.082Z,21.8
2016-09-15T07:50:46.631Z,21.88
2016-09-15T07:51:27.187Z,21.9
2016-09-15T07:52:07.732Z,21.9
2016-09-15T07:52:48.285Z,22
2016-09-15T07:53:28.836Z,22.07
2016-09-15T07:54:09.385Z,22.07
2016-09-15T07:54:49.925Z,22.18
2016-09-15T07:55:30.474Z,22.17
2016-09-15T07:56:11.023Z,22.1
2016-09-15T07:56:51.565Z,22.3
2016-09-15T07:57:32.101Z,22.28
2016-09-15T07:58:12.655Z,22.31
2016-09-15T07:58:53.200Z,22.4
2016-09-15T07:59:33.749Z,22.47
2016-09-15T08:00:14.298Z,22.42
2016-09-15T08:00:54.845Z,22.52
2016-09-15T08:01:35.398Z,22.6
2016-09-15T08:02:15.935Z,22.54
2016-09-15T08:02:56.485Z,22.55
2016-09-15T08:03:37.029Z,22.67
2016-09-15T08:04:17.578Z,22.67
2016-09-15T08:04:58.124Z,22.68
2016-09-15T08:05:38.678Z,22.73
2016-09-15T08:06:19.227Z,22.88
2016-09-15T08:06:59.778Z,22.86
2016-09-15T08:07:40.342Z,22.94
2016-09-15T08:08:20.885Z,22.88
2016-09-15T08:09:01.422Z,23.01
2016-09-15T08:09:42.015Z,23.04
2016-09-15T08:10:22.564Z,23.05
2016-09-15T08:11:03.107Z,23
2016-09-15T08:11:43.658Z,23.12
2016-09-15T08:12:24.207Z,23.13
2016-09-15T08:13:04.752Z,23.22
2016-09-15T08:13:45.297Z,23.22
2016-09-15T08:14:25.849Z,23.16
2016-09-15T08:15:06.400Z,23.22
2016-09-15T08:15:46.952Z,23.35
2016-09-15T08:16:27.501Z,23.33
2016-09-15T08:17:08.053Z,23.46
2016-09-15T08:17:48.605Z,23.48
2016-09-15T08:18:29.156Z,23.46
2016-09-15T08:19:09.706Z,23.5
2016-09-15T08:19:50.256Z,23.55
2016-09-15T08:20:30.807Z,23.72
2016-09-15T08:21:11.357Z,23.75
2016-09-15T08:21:51.901Z,23.76
2016-09-15T08:22:32.452Z,23.9
2016-09-15T08:23:12.995Z,23.87
2016-09-15T08:23:53.559Z,23.95
2016-09-15T08:24:34.103Z,23.97
2016-09-15T08:25:14.652Z,24.08
2016-09-15T08:25:55.206Z,24.05
2016-09-15T08:26:35.758Z,24.06
2016-09-15T08:27:16.315Z,24.22
2016-09-15T08:27:56.859Z,24.18
2016-09-15T08:28:37.422Z,24.25
2016-09-15T08:29:17.958Z,24.35
2016-09-15T08:29:58.510Z,24.37
2016-09-15T08:30:39.063Z,24.39
2016-09-15T08:31:19.613Z,24.61
2016-09-15T08:32:00.164Z,24.73
2016-09-15T08:32:40.699Z,24.65
2016-09-15T08:33:21.256Z,24.76
2016-09-15T08:34:01.807Z,24.8
2016-09-15T08:34:42.361Z,24.84
2016-09-15T08:35:22.914Z,24.9
2016-09-15T08:36:03.469Z,24.99
2016-09-15T08:36:44.019Z,25.13
2016-09-15T08:37:24.580Z,25.06
2016-09-15T08:38:05.132Z,25.25
2016-09-15T08:38:45.681Z,25.21
2016-09-15T08:39:26.231Z,25.33
2016-09-15T08:40:06.782Z,25.39
2016-09-15T08:40:47.332Z,25.46
2016-09-15T08:41:27.878Z,25.54
2016-09-15T08:42:08.428Z,25.64
2016-09-15T08:42:48.976Z,25.69
2016-09-15T08:43:29.528Z,25.82
2016-09-15T08:44:10.079Z,25.8
2016-09-15T08:44:50.632Z,25.95